Time;durP1;ratioP1;P1;durP2;ratioP2;P2;SDS_P1;SDS_P2;PMS_P1;PMS_P2;Temp;Humidity;BMP_temperature;BMP_pressure;BME280_temperature;BME280_humidity;BME280_pressure;Samples;Min_cycle;Max_cycle;Signal;HPM_P1;HPM_P2
2021/12/22 00:00:55;;;;;;;73.05;28.10;;;-4.20;99.90;;;;;;5093296;28;20029;-77
2021/12/22 00:03:22;;;;;;;59.17;28.00;;;-4.10;99.90;;;;;;5095625;28;20031;-77
2021/12/22 00:05:50;;;;;;;56.75;28.10;;;-4.10;99.90;;;;;;5112277;28;20019;-77
2021/12/22 00:08:17;;;;;;;58.05;27.73;;;-4.20;99.90;;;;;;5112253;28;20016;-77
2021/12/22 00:10:44;;;;;;;58.58;27.48;;;-4.20;99.90;;;;;;5113288;28;20020;-77
2021/12/22 00:13:10;;;;;;;56.72;27.67;;;-4.20;99.90;;;;;;5112125;28;20020;-78
2021/12/22 00:15:35;;;;;;;59.22;26.65;;;-4.20;99.90;;;;;;5113299;28;20520;-77
2021/12/22 00:18:01;;;;;;;66.15;29.27;;;-4.20;99.90;;;;;;5112015;28;20020;-77
2021/12/22 00:20:27;;;;;;;74.70;33.17;;;-4.20;99.90;;;;;;5112982;28;20098;-78
2021/12/22 00:22:52;;;;;;;81.75;34.65;;;-4.20;99.90;;;;;;5111857;28;20042;-77
2021/12/22 00:25:21;;;;;;;87.93;37.08;;;-4.20;99.90;;;;;;5108369;28;20118;-77
2021/12/22 00:27:46;;;;;;;101.20;41.25;;;-4.30;99.90;;;;;;5091314;28;20016;-78
2021/12/22 00:30:12;;;;;;;94.53;40.22;;;-4.30;99.90;;;;;;5091527;28;20039;-77
2021/12/22 00:32:39;;;;;;;100.53;43.05;;;-4.30;99.90;;;;;;5091477;28;20482;-77
2021/12/22 00:35:06;;;;;;;104.82;41.60;;;-4.30;99.90;;;;;;5092841;28;20027;-78
2021/12/22 00:37:32;;;;;;;100.28;42.58;;;-4.20;99.90;;;;;;5092604;28;20024;-78
2021/12/22 00:39:59;;;;;;;91.60;39.63;;;-4.20;99.90;;;;;;5092642;28;20320;-77
2021/12/22 00:42:26;;;;;;;98.22;39.70;;;-4.20;99.90;;;;;;5092633;28;20028;-77
2021/12/22 00:44:54;;;;;;;96.70;41.28;;;-4.20;99.90;;;;;;5094383;28;20040;-77
2021/12/22 00:47:23;;;;;;;87.97;41.20;;;-4.20;99.90;;;;;;5096839;28;20032;-77
2021/12/22 00:49:48;;;;;;;90.60;37.95;;;-4.30;99.90;;;;;;5095390;28;20020;-77
2021/12/22 00:52:14;;;;;;;100.55;40.78;;;-4.30;99.90;;;;;;5096809;28;20016;-77
2021/12/22 00:54:40;;;;;;;98.38;41.33;;;-4.20;99.90;;;;;;5096685;28;20047;-78
2021/12/22 00:57:06;;;;;;;97.00;41.45;;;-4.20;99.90;;;;;;5096751;28;20032;-77
2021/12/22 00:59:34;;;;;;;96.15;41.03;;;-4.20;99.90;;;;;;5095266;28;20115;-78
2021/12/22 01:02:01;;;;;;;90.28;40.33;;;-4.20;99.90;;;;;;5096647;28;20107;-77
2021/12/22 01:04:27;;;;;;;97.95;40.72;;;-4.20;99.90;;;;;;5095126;28;20047;-77
2021/12/22 01:06:53;;;;;;;85.57;37.80;;;-4.30;99.90;;;;;;5095182;28;20489;-78
2021/12/22 01:09:19;;;;;;;80.75;37.78;;;-4.20;99.90;;;;;;5094900;28;20031;-77
2021/12/22 01:11:45;;;;;;;88.40;37.25;;;-4.20;99.90;;;;;;5096393;28;20032;-77
2021/12/22 01:14:12;;;;;;;83.85;38.05;;;-4.20;99.90;;;;;;5096162;28;20566;-77
2021/12/22 01:16:38;;;;;;;88.75;36.95;;;-4.10;99.90;;;;;;5096199;28;20020;-77
2021/12/22 01:19:10;;;;;;;86.00;37.50;;;-4.20;99.90;;;;;;5096094;28;20028;-77
2021/12/22 01:21:44;;;;;;;93.88;40.38;;;-4.10;99.90;;;;;;5096051;28;20024;-77
2021/12/22 01:24:32;;;;;;;87.43;39.05;;;-4.10;99.90;;;;;;5096244;28;20067;-77
2021/12/22 01:27:04;;;;;;;93.05;40.38;;;-4.10;99.90;;;;;;5096129;28;20024;-77
2021/12/22 01:29:31;;;;;;;;;;;-4.10;99.90;;;;;;5096333;28;20016;-77
2021/12/22 01:31:57;;;;;;;90.00;40.58;;;-4.10;99.90;;;;;;5094374;28;19908;-77
2021/12/22 01:34:24;;;;;;;102.32;43.38;;;-4.10;99.90;;;;;;5094581;28;20145;-77
2021/12/22 01:36:50;;;;;;;144.43;61.00;;;-4.10;99.90;;;;;;5095595;28;20024;-77
2021/12/22 01:39:16;;;;;;;246.63;100.07;;;-4.10;99.90;;;;;;5095786;28;20234;-77
2021/12/22 01:41:41;;;;;;;310.88;117.20;;;-4.10;99.90;;;;;;5094223;28;20012;-77
2021/12/22 01:44:09;;;;;;;369.90;139.27;;;-4.10;99.90;;;;;;5095484;28;20393;-77
2021/12/22 01:49:10;;;;;;;101.43;45.33;;;-4.20;99.90;;;;;;5096038;28;20039;-77
2021/12/22 01:51:59;;;;;;;104.95;47.63;;;-4.20;99.90;;;;;;5094383;28;20024;-77
2021/12/22 01:54:48;;;;;;;97.30;45.63;;;-4.10;99.90;;;;;;5095114;28;20032;-77
2021/12/22 01:57:15;;;;;;;98.93;46.65;;;-4.20;99.90;;;;;;5094377;28;20016;-77
2021/12/22 01:59:43;;;;;;;101.40;44.42;;;-4.20;99.90;;;;;;5095360;28;20020;-77
2021/12/22 02:02:11;;;;;;;104.00;44.60;;;-4.20;99.90;;;;;;5094040;28;20016;-77
2021/12/22 02:04:38;;;;;;;104.35;49.08;;;-4.20;99.90;;;;;;5094920;28;20036;-77
2021/12/22 02:07:07;;;;;;;115.43;50.97;;;-4.20;99.90;;;;;;5095224;28;20027;-77
2021/12/22 02:12:02;;;;;;;109.72;49.83;;;-4.20;99.90;;;;;;5094768;28;20028;-77
2021/12/22 02:14:28;;;;;;;113.78;52.08;;;-4.20;99.90;;;;;;5093844;28;20119;-77
2021/12/22 02:16:54;;;;;;;109.72;53.13;;;-4.20;99.90;;;;;;5093729;28;20517;-77
2021/12/22 02:19:19;;;;;;;108.05;50.50;;;-4.20;99.90;;;;;;5093685;28;20115;-77
2021/12/22 02:21:51;;;;;;;111.30;49.83;;;-4.20;99.90;;;;;;5093479;28;20523;-77
2021/12/22 02:24:17;;;;;;;118.07;53.37;;;-4.20;99.90;;;;;;5093654;28;20577;-77
2021/12/22 02:26:50;;;;;;;113.38;52.38;;;-4.20;99.90;;;;;;5094777;28;20059;-78
2021/12/22 02:29:20;;;;;;;116.85;54.25;;;-4.20;99.90;;;;;;5094448;28;20406;-78
2021/12/22 02:34:49;;;;;;;134.43;57.72;;;-4.20;99.90;;;;;;5094339;28;20032;-78
2021/12/22 02:37:18;;;;;;;119.90;56.65;;;-4.20;99.90;;;;;;5093196;28;20024;-78
2021/12/22 02:39:46;;;;;;;123.57;57.83;;;-4.10;99.90;;;;;;5093180;28;20052;-78
2021/12/22 02:42:12;;;;;;;126.07;58.67;;;-4.10;99.90;;;;;;5093225;28;20416;-77
2021/12/22 02:44:38;;;;;;;120.55;57.75;;;-4.10;99.90;;;;;;5094623;28;20035;-77
2021/12/22 02:47:16;;;;;;;131.63;60.88;;;-4.10;99.90;;;;;;5093364;28;20501;-77
2021/12/22 02:49:41;;;;;;;129.00;59.45;;;-4.10;99.90;;;;;;5093928;28;20385;-77
2021/12/22 02:52:07;;;;;;;132.90;63.35;;;-4.00;99.90;;;;;;5094443;28;20024;-78
2021/12/22 02:54:40;;;;;;;138.27;66.38;;;-4.00;99.90;;;;;;5093104;28;20034;-77
2021/12/22 02:57:19;;;;;;;134.55;65.20;;;-4.00;99.90;;;;;;5092945;28;20024;-77
2021/12/22 03:00:05;;;;;;;139.60;65.93;;;-4.00;99.90;;;;;;5092998;28;20105;-77
2021/12/22 03:02:46;;;;;;;158.27;69.45;;;-4.00;99.90;;;;;;5094137;28;20055;-77
2021/12/22 03:05:11;;;;;;;143.00;63.63;;;-3.90;99.90;;;;;;5094385;28;20043;-77
2021/12/22 03:07:38;;;;;;;149.63;64.50;;;-3.90;99.90;;;;;;5091929;28;20028;-77
2021/12/22 03:10:12;;;;;;;139.18;64.38;;;-4.00;99.90;;;;;;5093899;28;20020;-77
2021/12/22 03:12:39;;;;;;;140.77;64.70;;;-3.90;99.90;;;;;;5094044;28;20035;-77
2021/12/22 03:15:08;;;;;;;138.30;62.50;;;-3.90;99.90;;;;;;5092737;28;20103;-77
2021/12/22 03:17:33;;;;;;;133.98;64.63;;;-3.90;99.90;;;;;;5092297;28;20012;-77
2021/12/22 03:19:59;;;;;;;139.00;68.25;;;-3.90;99.90;;;;;;5092473;28;20106;-77
2021/12/22 03:22:25;;;;;;;135.50;62.13;;;-3.90;99.90;;;;;;5092671;28;20063;-78
2021/12/22 03:24:52;;;;;;;130.93;62.47;;;-3.90;99.90;;;;;;5093883;28;20103;-77
2021/12/22 03:27:20;;;;;;;130.18;64.05;;;-3.90;99.90;;;;;;5092466;28;20489;-77
2021/12/22 03:29:46;;;;;;;123.57;56.50;;;-3.90;99.90;;;;;;5093774;28;20031;-77
2021/12/22 03:32:11;;;;;;;123.13;54.47;;;-3.90;99.90;;;;;;5093799;28;20019;-78
2021/12/22 03:34:39;;;;;;;104.05;50.33;;;-3.90;99.90;;;;;;5093626;28;20024;-77
2021/12/22 03:37:06;;;;;;;114.68;52.00;;;-3.90;99.90;;;;;;5093714;28;20485;-77
2021/12/22 03:39:32;;;;;;;124.13;55.60;;;-3.80;99.90;;;;;;5093593;28;20028;-77
2021/12/22 03:41:58;;;;;;;112.95;52.95;;;-3.80;99.90;;;;;;5093734;28;20020;-77
2021/12/22 03:44:23;;;;;;;108.28;47.83;;;-3.80;99.90;;;;;;5092478;28;20478;-77
2021/12/22 03:46:51;;;;;;;104.72;46.53;;;-3.90;99.90;;;;;;5105689;28;20034;-77
2021/12/22 03:49:17;;;;;;;89.78;44.88;;;-3.80;99.90;;;;;;5113806;28;20027;-77
2021/12/22 03:51:43;;;;;;;84.57;41.30;;;-3.80;99.90;;;;;;5103042;28;20466;-78
2021/12/22 03:54:11;;;;;;;86.50;42.30;;;-3.80;99.90;;;;;;5092110;28;20024;-77
2021/12/22 03:56:37;;;;;;;87.03;39.33;;;-3.80;99.90;;;;;;5092084;28;20047;-78
2021/12/22 03:59:04;;;;;;;97.22;44.65;;;-3.80;99.90;;;;;;5093292;28;20477;-77
2021/12/22 04:01:29;;;;;;;86.57;38.85;;;-3.70;99.90;;;;;;5093280;28;20062;-78
2021/12/22 04:03:59;;;;;;;85.05;38.08;;;-3.70;99.90;;;;;;5098619;28;20051;-78
2021/12/22 04:06:25;;;;;;;89.72;40.72;;;-3.70;99.90;;;;;;5112300;28;20019;-78
2021/12/22 04:08:51;;;;;;;83.30;40.70;;;-3.70;99.90;;;;;;5112147;28;20069;-77
2021/12/22 04:11:17;;;;;;;82.50;37.30;;;-3.70;99.90;;;;;;5112249;28;20023;-78
2021/12/22 04:13:42;;;;;;;72.82;38.33;;;-3.70;99.90;;;;;;5112237;28;20020;-78
2021/12/22 04:16:08;;;;;;;77.28;39.22;;;-3.70;99.90;;;;;;5112085;28;20411;-78
2021/12/22 04:18:33;;;;;;;80.05;38.55;;;-3.70;99.90;;;;;;5113227;28;20028;-78
2021/12/22 04:20:59;;;;;;;70.93;36.22;;;-3.70;99.90;;;;;;5112051;28;20036;-78
2021/12/22 04:23:25;;;;;;;76.43;34.42;;;-3.80;99.90;;;;;;5112047;28;20043;-78
2021/12/22 04:25:50;;;;;;;79.18;37.28;;;-3.80;99.90;;;;;;5111818;28;20450;-78
2021/12/22 04:28:16;;;;;;;107.53;44.97;;;-3.80;99.90;;;;;;5100643;28;20385;-77
2021/12/22 04:30:48;;;;;;;88.93;39.65;;;-3.80;99.90;;;;;;5092944;28;20061;-77
2021/12/22 04:33:15;;;;;;;81.72;37.55;;;-3.80;99.90;;;;;;5092986;28;20413;-77
2021/12/22 04:35:41;;;;;;;111.47;46.92;;;-3.80;99.90;;;;;;5091565;28;20355;-77
2021/12/22 04:38:06;;;;;;;102.10;45.03;;;-3.80;99.90;;;;;;5091637;28;20137;-77
2021/12/22 04:40:32;;;;;;;88.63;41.75;;;-3.90;99.90;;;;;;5091467;28;20111;-77
2021/12/22 04:42:58;;;;;;;138.77;59.10;;;-3.90;99.90;;;;;;5092682;28;20024;-77
2021/12/22 04:45:24;;;;;;;334.38;130.77;;;-3.90;99.90;;;;;;5091554;28;20512;-77
2021/12/22 04:47:51;;;;;;;265.70;105.80;;;-3.90;99.90;;;;;;5092847;28;20103;-77
2021/12/22 04:50:21;;;;;;;220.35;92.13;;;-3.90;99.90;;;;;;5092688;28;20082;-77
2021/12/22 04:55:16;;;;;;;361.25;142.38;;;-3.90;99.90;;;;;;5092727;28;20366;-77
2021/12/22 04:57:42;;;;;;;427.73;161.85;;;-3.90;99.90;;;;;;5091421;28;20111;-77
2021/12/22 05:00:10;;;;;;;524.35;217.90;;;-3.90;99.90;;;;;;5091301;28;20516;-77
2021/12/22 05:02:36;;;;;;;429.92;161.88;;;-4.00;99.90;;;;;;5091343;28;20359;-77
2021/12/22 05:05:02;;;;;;;437.33;162.23;;;-4.00;99.90;;;;;;5092507;28;20089;-77
2021/12/22 05:07:28;;;;;;;128.10;55.17;;;-4.00;99.90;;;;;;5092580;28;20106;-78
2021/12/22 05:09:53;;;;;;;82.97;38.38;;;-4.00;99.90;;;;;;5091288;28;20028;-77
2021/12/22 05:12:19;;;;;;;320.10;122.25;;;-4.00;99.90;;;;;;5091307;28;20454;-77
2021/12/22 05:14:47;;;;;;;257.23;105.90;;;-4.10;99.90;;;;;;5092475;28;20032;-78
2021/12/22 05:17:20;;;;;;;322.25;129.60;;;-4.10;99.90;;;;;;5092523;28;20382;-78
2021/12/22 05:19:46;;;;;;;403.33;154.02;;;-4.10;99.90;;;;;;5091227;28;20044;-78
2021/12/22 05:22:12;;;;;;;809.65;378.60;;;-4.20;99.90;;;;;;5092470;28;20101;-78
2021/12/22 05:24:37;;;;;;;472.30;206.73;;;-4.20;99.90;;;;;;5091082;28;20469;-78
2021/12/22 05:27:07;;;;;;;277.98;117.22;;;-4.20;99.90;;;;;;5091173;28;20481;-78
2021/12/22 05:29:33;;;;;;;413.58;189.98;;;-4.20;99.90;;;;;;5093083;28;20048;-77
2021/12/22 05:32:00;;;;;;;481.10;214.18;;;-4.30;99.90;;;;;;5096131;28;20024;-78
2021/12/22 05:34:26;;;;;;;193.57;85.55;;;-4.20;99.90;;;;;;5095928;28;20020;-78
2021/12/22 05:36:52;;;;;;;89.72;38.95;;;-4.20;99.90;;;;;;5094819;28;20435;-78
2021/12/22 05:39:17;;;;;;;63.80;29.38;;;-4.30;99.90;;;;;;5094607;28;20432;-78
2021/12/22 05:41:43;;;;;;;48.50;24.70;;;-4.30;99.90;;;;;;5094610;28;20066;-77
2021/12/22 05:44:09;;;;;;;53.08;25.90;;;-4.20;99.90;;;;;;5095694;28;20044;-78
2021/12/22 05:46:34;;;;;;;53.45;24.65;;;-4.20;99.90;;;;;;5095812;28;20020;-78
2021/12/22 05:49:00;;;;;;;50.78;24.20;;;-4.20;99.90;;;;;;5095792;28;20024;-78
2021/12/22 05:51:27;;;;;;;57.88;25.13;;;-4.20;99.90;;;;;;5094478;28;20028;-78
2021/12/22 05:53:53;;;;;;;53.58;26.13;;;-4.20;99.90;;;;;;5095746;28;20455;-78
2021/12/22 05:56:18;;;;;;;78.50;35.25;;;-4.20;99.90;;;;;;5094390;28;20050;-78
2021/12/22 05:58:45;;;;;;;631.97;248.35;;;-4.20;99.90;;;;;;5095446;28;20035;-79
2021/12/22 06:01:11;;;;;;;486.05;181.55;;;-4.20;99.90;;;;;;5095642;28;20020;-78
2021/12/22 06:03:36;;;;;;;747.97;308.20;;;-4.30;99.90;;;;;;5095386;28;20040;-77
2021/12/22 06:06:02;;;;;;;1592.57;590.83;;;-4.30;99.90;;;;;;5095240;28;20024;-77
2021/12/22 06:08:28;;;;;;;1066.22;439.38;;;-4.30;99.90;;;;;;5094109;28;20474;-77
2021/12/22 06:10:53;;;;;;;362.27;124.82;;;-4.30;99.90;;;;;;5095410;28;20024;-77
2021/12/22 06:13:19;;;;;;;155.63;63.20;;;-4.30;99.90;;;;;;5095358;28;20024;-78
2021/12/22 06:15:45;;;;;;;110.10;44.72;;;-4.30;99.90;;;;;;5094039;28;20488;-78
2021/12/22 06:18:11;;;;;;;155.20;70.43;;;-4.30;99.90;;;;;;5094225;28;20028;-78
2021/12/22 06:20:37;;;;;;;144.52;58.55;;;-4.40;99.90;;;;;;5095156;28;20095;-78
2021/12/22 06:23:03;;;;;;;740.05;288.80;;;-4.40;99.90;;;;;;5093843;28;20044;-78
2021/12/22 06:25:28;;;;;;;1951.43;681.72;;;-4.40;99.90;;;;;;5093305;28;20043;-77
2021/12/22 06:27:54;;;;;;;1419.70;558.15;;;-4.40;99.90;;;;;;5094252;28;20054;-77
2021/12/22 06:30:21;;;;;;;1040.72;429.05;;;-4.40;99.90;;;;;;5094403;28;20115;-78
2021/12/22 06:32:51;;;;;;;839.72;342.05;;;-4.40;99.90;;;;;;5113245;28;20027;-77
2021/12/22 06:35:17;;;;;;;647.40;248.73;;;-4.30;99.90;;;;;;5112877;28;20088;-77
2021/12/22 06:37:44;;;;;;;393.02;145.10;;;-4.30;99.90;;;;;;5112610;28;20469;-77
2021/12/22 06:40:10;;;;;;;576.47;215.50;;;-4.30;99.90;;;;;;5096612;28;20107;-77
2021/12/22 06:42:38;;;;;;;431.40;160.85;;;-4.30;99.90;;;;;;5095350;28;20031;-77
2021/12/22 06:45:05;;;;;;;405.35;160.05;;;-4.30;99.90;;;;;;5113460;28;20027;-77
2021/12/22 06:47:31;;;;;;;413.40;145.43;;;-4.30;99.90;;;;;;5111210;28;20492;-77
2021/12/22 06:49:56;;;;;;;424.02;135.05;;;-4.20;99.90;;;;;;5112522;28;20020;-77
2021/12/22 06:52:22;;;;;;;497.30;169.48;;;-4.20;99.90;;;;;;5107860;28;20036;-76
2021/12/22 06:54:47;;;;;;;361.98;136.75;;;-4.20;99.90;;;;;;5107560;28;20020;-76
2021/12/22 06:57:18;;;;;;;189.63;78.18;;;-4.20;99.90;;;;;;5111492;28;20059;-77
2021/12/22 06:59:44;;;;;;;152.82;67.35;;;-4.20;99.90;;;;;;5108630;28;20047;-79
2021/12/22 07:02:09;;;;;;;623.38;228.55;;;-4.20;99.90;;;;;;5113341;28;20480;-80
2021/12/22 07:04:35;;;;;;;367.90;125.65;;;-4.20;99.90;;;;;;5107215;28;20036;-79
2021/12/22 07:07:00;;;;;;;253.10;93.25;;;-4.10;99.90;;;;;;5113769;28;20049;-77
2021/12/22 07:09:26;;;;;;;247.25;90.68;;;-4.10;99.90;;;;;;5109002;28;20477;-77
2021/12/22 07:11:52;;;;;;;349.70;119.13;;;-4.10;99.90;;;;;;5113243;28;20071;-78
2021/12/22 07:14:18;;;;;;;478.08;168.57;;;-4.10;99.90;;;;;;5110339;28;20087;-77
2021/12/22 07:16:45;;;;;;;391.98;138.13;;;-4.10;99.90;;;;;;5110381;28;20024;-78
2021/12/22 07:19:11;;;;;;;473.75;164.13;;;-4.10;99.90;;;;;;5111599;28;20020;-77
2021/12/22 07:21:37;;;;;;;430.20;144.23;;;-4.10;99.90;;;;;;5111113;28;20023;-77
2021/12/22 07:24:03;;;;;;;266.40;88.93;;;-4.20;99.90;;;;;;5112457;28;20413;-77
2021/12/22 07:26:29;;;;;;;164.65;64.63;;;-4.20;99.90;;;;;;5111203;28;20023;-77
2021/12/22 07:28:55;;;;;;;164.75;59.78;;;-4.20;99.90;;;;;;5113408;28;20477;-77
2021/12/22 07:31:21;;;;;;;138.27;58.10;;;-4.30;99.90;;;;;;5111999;28;20020;-77
2021/12/22 07:34:05;;;;;;;309.23;108.50;;;-4.30;99.90;;;;;;5111493;27;20404;-77
2021/12/22 07:36:33;;;;;;;156.80;57.08;;;-4.30;99.90;;;;;;5100052;28;20382;-77
2021/12/22 07:39:01;;;;;;;240.50;89.45;;;-4.40;99.90;;;;;;5092071;28;20024;-77
2021/12/22 07:41:28;;;;;;;188.77;76.20;;;-4.40;99.90;;;;;;5091374;28;20056;-76
2021/12/22 07:43:54;;;;;;;139.23;61.08;;;-4.40;99.90;;;;;;5109093;27;20038;-76
2021/12/22 07:46:20;;;;;;;140.68;58.13;;;-4.50;99.90;;;;;;5092652;28;20034;-76
2021/12/22 07:48:46;;;;;;;170.75;67.22;;;-4.50;99.90;;;;;;5091665;28;20024;-76
2021/12/22 07:51:11;;;;;;;182.48;80.00;;;-4.50;99.90;;;;;;5090376;28;20047;-77
2021/12/22 07:53:37;;;;;;;186.20;78.90;;;-4.50;99.90;;;;;;5087380;28;20024;-76
2021/12/22 07:56:03;;;;;;;190.52;79.45;;;-4.60;99.90;;;;;;5091199;28;20020;-76
2021/12/22 07:58:29;;;;;;;168.27;72.90;;;-4.60;99.90;;;;;;5090630;28;20024;-76
2021/12/22 08:00:56;;;;;;;151.55;63.03;;;-4.60;99.90;;;;;;5093644;28;20367;-76
2021/12/22 08:03:23;;;;;;;107.72;46.22;;;-4.60;99.90;;;;;;5094481;28;20027;-77
2021/12/22 08:05:49;;;;;;;89.22;39.40;;;-4.70;99.90;;;;;;5102817;28;20019;-76
2021/12/22 08:08:17;;;;;;;91.32;41.35;;;-4.60;99.90;;;;;;5095016;28;20039;-78
2021/12/22 08:10:43;;;;;;;100.18;43.35;;;-4.50;99.90;;;;;;5096406;28;20027;-80
2021/12/22 08:13:09;;;;;;;118.05;50.78;;;-4.30;99.90;;;;;;5104515;28;20074;-76
2021/12/22 08:15:34;;;;;;;149.43;63.88;;;-4.30;99.90;;;;;;5098403;28;20484;-77
2021/12/22 08:18:00;;;;;;;63.88;29.30;;;-4.30;99.90;;;;;;5092700;28;20028;-79
2021/12/22 08:20:26;;;;;;;54.38;26.42;;;-4.40;99.90;;;;;;5092308;28;20039;-78
2021/12/22 08:22:52;;;;;;;46.60;24.67;;;-4.50;99.90;;;;;;5092812;28;20397;-77
2021/12/22 08:25:17;;;;;;;46.95;22.70;;;-4.60;99.90;;;;;;5091424;28;20032;-77
2021/12/22 08:27:44;;;;;;;57.67;29.60;;;-4.60;99.90;;;;;;5093630;28;20016;-77
2021/12/22 08:30:10;;;;;;;59.80;27.85;;;-4.60;99.90;;;;;;5094729;28;20027;-78
2021/12/22 08:32:36;;;;;;;139.95;51.47;;;-4.60;99.90;;;;;;5090686;28;20443;-77
2021/12/22 08:35:04;;;;;;;154.82;65.00;;;-4.50;99.90;;;;;;5090361;28;20020;-78
2021/12/22 08:40:17;;;;;;;123.50;48.97;;;-4.40;99.90;;;;;;5091802;28;20110;-77
2021/12/22 08:42:44;;;;;;;66.47;30.45;;;-4.30;99.90;;;;;;5091223;28;20073;-77
2021/12/22 08:45:11;;;;;;;57.75;24.15;;;-4.20;99.90;;;;;;5090243;28;20061;-77
2021/12/22 08:47:37;;;;;;;69.43;31.50;;;-4.20;99.90;;;;;;5093688;28;20032;-78
2021/12/22 08:50:04;;;;;;;117.55;54.67;;;-4.10;99.90;;;;;;5096297;28;20043;-79
2021/12/22 08:52:30;;;;;;;88.82;38.42;;;-4.00;99.90;;;;;;5094683;28;20457;-77
2021/12/22 08:54:55;;;;;;;52.60;23.48;;;-3.90;99.90;;;;;;5095089;28;20039;-77
2021/12/22 08:57:21;;;;;;;57.60;27.38;;;-3.80;99.90;;;;;;5101554;28;20019;-77
2021/12/22 08:59:47;;;;;;;72.05;32.83;;;-3.70;99.90;;;;;;5094104;28;20469;-78
2021/12/22 09:02:13;;;;;;;59.28;27.25;;;-3.60;99.90;;;;;;5093810;28;20023;-77
2021/12/22 09:04:39;;;;;;;78.80;33.85;;;-3.60;99.90;;;;;;5095380;28;20493;-77
2021/12/22 09:07:05;;;;;;;38.33;19.83;;;-3.50;99.90;;;;;;5102455;28;20481;-77
2021/12/22 09:09:32;;;;;;;51.17;21.08;;;-3.50;99.90;;;;;;5093697;28;20073;-78
2021/12/22 09:11:57;;;;;;;37.45;17.60;;;-3.60;99.90;;;;;;5095012;28;20032;-77
2021/12/22 09:14:24;;;;;;;34.22;16.77;;;-3.60;99.90;;;;;;5099564;28;20111;-77
2021/12/22 09:16:50;;;;;;;37.33;16.88;;;-3.60;99.90;;;;;;5094736;28;20048;-77
2021/12/22 09:19:16;;;;;;;61.80;30.08;;;-3.60;99.90;;;;;;5106846;28;20036;-76
2021/12/22 09:21:42;;;;;;;36.83;18.40;;;-3.60;99.90;;;;;;5103047;28;20036;-77
2021/12/22 09:24:08;;;;;;;44.92;20.27;;;-3.50;99.90;;;;;;5096826;28;20046;-77
2021/12/22 09:26:34;;;;;;;45.28;23.38;;;-3.50;99.90;;;;;;5097380;28;20112;-77
2021/12/22 09:29:00;;;;;;;46.63;22.98;;;-3.40;99.90;;;;;;5098251;28;20027;-77
2021/12/22 09:31:26;;;;;;;71.75;32.70;;;-3.30;99.90;;;;;;5099369;28;20020;-77
2021/12/22 09:33:52;;;;;;;42.65;22.67;;;-3.20;99.90;;;;;;5099322;28;20016;-77
2021/12/22 09:36:19;;;;;;;53.97;25.98;;;-3.10;99.90;;;;;;5095135;28;20089;-77
2021/12/22 09:38:45;;;;;;;32.63;17.55;;;-3.20;99.90;;;;;;5096120;28;20081;-77
2021/12/22 09:41:12;;;;;;;35.63;19.63;;;-3.10;99.90;;;;;;5094321;28;20630;-77
2021/12/22 09:43:38;;;;;;;33.72;17.52;;;-3.00;99.90;;;;;;5096976;28;20032;-77
2021/12/22 09:46:09;;;;;;;42.33;23.40;;;-3.00;99.90;;;;;;5100435;27;20030;-77
2021/12/22 09:48:48;;;;;;;38.78;21.15;;;-3.00;99.90;;;;;;5094960;28;20028;-78
2021/12/22 09:53:48;;;;;;;29.35;15.38;;;-2.90;99.90;;;;;;5096991;28;20028;-75
2021/12/22 09:56:17;;;;;;;31.05;14.30;;;-2.80;99.90;;;;;;5094467;28;20028;-76
2021/12/22 09:58:45;;;;;;;30.40;15.90;;;-2.80;99.90;;;;;;5092968;28;20046;-76
2021/12/22 10:01:12;;;;;;;36.58;16.60;;;-2.70;99.90;;;;;;5100696;27;20023;-78
2021/12/22 10:03:38;;;;;;;21.35;12.15;;;-2.70;99.90;;;;;;5106574;28;20070;-77
2021/12/22 10:06:04;;;;;;;28.02;14.30;;;-2.60;99.20;;;;;;5097645;28;20040;-77
2021/12/22 10:08:31;;;;;;;35.30;17.85;;;-2.50;97.70;;;;;;5098114;28;20074;-77
2021/12/22 10:11:11;;;;;;;25.23;11.80;;;-2.60;93.60;;;;;;5097051;28;20508;-77
2021/12/22 10:13:41;;;;;;;28.02;13.73;;;-2.50;91.60;;;;;;5096948;28;20031;-77
2021/12/22 10:16:25;;;;;;;24.77;11.30;;;-2.50;89.90;;;;;;5110366;28;20071;-77
2021/12/22 10:19:07;;;;;;;11.63;7.57;;;-2.50;88.40;;;;;;5093723;28;20031;-76
2021/12/22 10:21:34;;;;;;;14.57;7.00;;;-2.50;85.20;;;;;;5095214;28;20032;-76
2021/12/22 10:24:03;;;;;;;11.65;7.28;;;-2.60;83.50;;;;;;5095313;28;20024;-76
2021/12/22 10:26:28;;;;;;;16.23;8.30;;;-2.70;82.40;;;;;;5109128;27;20031;-76
2021/12/22 10:28:59;;;;;;;16.77;10.68;;;-2.60;81.90;;;;;;5093657;28;20032;-77
2021/12/22 10:31:42;;;;;;;19.25;9.52;;;-2.70;82.80;;;;;;5101324;28;20020;-76
2021/12/22 10:34:10;;;;;;;19.55;11.68;;;-2.60;83.10;;;;;;5113912;28;20419;-76
2021/12/22 10:36:43;;;;;;;32.95;17.55;;;-2.70;83.20;;;;;;5113909;28;20377;-76
2021/12/22 10:39:28;;;;;;;34.40;17.65;;;-2.70;84.80;;;;;;5105956;28;20062;-76
2021/12/22 10:42:07;;;;;;;28.42;14.48;;;-2.70;84.80;;;;;;5093627;28;20073;-76
2021/12/22 10:44:39;;;;;;;19.20;10.55;;;-2.80;82.70;;;;;;5094611;28;20036;-76
2021/12/22 10:47:32;;;;;;;19.60;11.80;;;-2.90;82.80;;;;;;5094688;28;20090;-75
2021/12/22 10:49:59;;;;;;;17.08;9.63;;;-2.80;82.10;;;;;;5094736;28;20020;-76
2021/12/22 10:52:25;;;;;;;22.33;11.35;;;-2.90;80.00;;;;;;5093257;28;20020;-76
2021/12/22 10:55:04;;;;;;;37.28;17.10;;;-2.80;79.00;;;;;;5092578;28;20540;-75
2021/12/22 10:57:35;;;;;;;35.42;16.60;;;-2.80;78.30;;;;;;5109255;28;20363;-76
2021/12/22 11:00:00;;;;;;;18.25;9.35;;;-2.70;76.50;;;;;;5093045;28;20393;-76
2021/12/22 11:02:31;;;;;;;22.48;9.95;;;-2.80;76.10;;;;;;5095823;28;20032;-76
2021/12/22 11:04:57;;;;;;;14.80;8.52;;;-2.70;77.70;;;;;;5096740;28;20032;-76
2021/12/22 11:07:29;;;;;;;18.98;11.52;;;-2.60;78.50;;;;;;5092768;28;20106;-75
2021/12/22 11:09:55;;;;;;;13.85;8.38;;;-2.40;76.60;;;;;;5092745;28;20486;-76
2021/12/22 11:12:35;;;;;;;17.42;9.20;;;-2.30;75.30;;;;;;5093679;28;20031;-76
2021/12/22 11:15:01;;;;;;;17.23;8.23;;;-2.10;72.50;;;;;;5091884;28;20047;-76
2021/12/22 11:17:26;;;;;;;19.10;11.05;;;-2.00;68.80;;;;;;5092836;28;20020;-76
2021/12/22 11:20:02;;;;;;;10.05;6.32;;;-1.80;68.80;;;;;;5091441;28;20016;-76
2021/12/22 11:23:01;;;;;;;10.45;6.18;;;-1.80;67.40;;;;;;5109686;28;20094;-76
2021/12/22 11:25:28;;;;;;;8.35;5.18;;;-1.80;63.90;;;;;;5092261;28;20040;-76
2021/12/22 11:27:55;;;;;;;10.10;6.57;;;-1.70;64.20;;;;;;5092829;28;20580;-76
2021/12/22 11:30:25;;;;;;;84.13;31.02;;;-1.70;64.60;;;;;;5093582;28;20028;-76
2021/12/22 11:32:52;;;;;;;368.60;120.05;;;-1.60;66.60;;;;;;5093954;28;20025;-76
2021/12/22 11:35:19;;;;;;;336.75;107.22;;;-1.50;68.10;;;;;;5093702;28;20390;-76
2021/12/22 11:37:44;;;;;;;367.45;114.28;;;-1.50;67.00;;;;;;5091797;28;20028;-76
2021/12/22 11:40:12;;;;;;;381.50;126.60;;;-1.60;67.30;;;;;;5091388;28;20488;-76
2021/12/22 11:42:39;;;;;;;125.65;43.92;;;-1.50;68.20;;;;;;5091652;28;20049;-76
2021/12/22 11:45:11;;;;;;;177.18;55.55;;;-1.50;67.60;;;;;;5094051;28;20437;-76
2021/12/22 11:47:43;;;;;;;85.07;32.30;;;-1.50;67.10;;;;;;5113646;28;20026;-75
2021/12/22 11:50:21;;;;;;;302.35;104.93;;;-1.40;66.70;;;;;;5113549;28;20031;-76
2021/12/22 11:53:14;;;;;;;76.05;30.42;;;-1.40;66.20;;;;;;5113513;28;20062;-75
2021/12/22 11:55:39;;;;;;;29.10;12.55;;;-1.50;64.50;;;;;;5112398;28;20023;-75
2021/12/22 11:58:17;;;;;;;14.82;7.28;;;-1.40;64.70;;;;;;5113517;28;20369;-76
2021/12/22 12:00:50;;;;;;;12.63;7.53;;;-1.40;64.90;;;;;;5113301;28;20117;-76
2021/12/22 12:03:20;;;;;;;17.73;10.52;;;-1.40;64.70;;;;;;5112163;28;20024;-76
2021/12/22 12:06:07;;;;;;;38.00;19.33;;;-1.40;64.50;;;;;;5113660;28;20477;-76
2021/12/22 12:08:41;;;;;;;24.00;10.68;;;-1.40;66.10;;;;;;5113574;28;20106;-76
2021/12/22 12:11:09;;;;;;;16.08;10.05;;;-1.50;66.80;;;;;;5112123;28;20031;-76
2021/12/22 12:13:41;;;;;;;19.35;9.82;;;-1.60;65.90;;;;;;5113319;28;20046;-75
2021/12/22 12:21:55;;;;;;;11.18;5.82;;;-1.80;68.90;;;;;;5113444;28;20085;-75
2021/12/22 12:24:35;;;;;;;12.15;6.88;;;-1.90;67.00;;;;;;5113327;28;20396;-75
2021/12/22 12:27:43;;;;;;;10.02;6.50;;;-1.90;67.10;;;;;;5113380;28;20477;-75
2021/12/22 12:30:16;;;;;;;15.05;6.85;;;-1.90;64.70;;;;;;5094245;28;20047;-75
2021/12/22 12:32:41;;;;;;;8.43;6.15;;;-1.90;64.90;;;;;;5097168;28;20387;-75
2021/12/22 12:35:28;;;;;;;25.85;13.75;;;-1.80;66.00;;;;;;5096501;28;20030;-76
2021/12/22 12:38:17;;;;;;;17.65;10.45;;;-1.80;67.70;;;;;;5093837;28;20115;-76
2021/12/22 12:40:57;;;;;;;12.07;6.72;;;-1.70;67.30;;;;;;5097830;28;20032;-75
2021/12/22 12:43:42;;;;;;;13.40;6.93;;;-1.70;67.90;;;;;;5103568;28;20051;-76
2021/12/22 12:46:28;;;;;;;13.68;8.48;;;-1.90;68.90;;;;;;5103840;27;20020;-75
2021/12/22 12:49:02;;;;;;;16.55;8.52;;;-1.90;68.90;;;;;;5102228;28;20051;-75